sensor_id;sensor_type;location;lat;lon;timestamp;P1;durP1;ratioP1;P2;durP2;ratioP2
9102;SDS011;4587;51.434;6.788;2022-11-15T00:00:23;10.03;;;7.73;;
9102;SDS011;4587;51.434;6.788;2022-11-15T00:02:49;9.90;;;7.50;;
9102;SDS011;4587;51.434;6.788;2022-11-15T00:05:15;10.13;;;7.53;;
9102;SDS011;4587;51.434;6.788;2022-11-15T00:07:40;8.83;;;7.50;;
9102;SDS011;4587;51.434;6.788;2022-11-15T00:10:06;9.67;;;7.27;;
9102;SDS011;4587;51.434;6.788;2022-11-15T00:12:31;8.37;;;7.57;;
9102;SDS011;4587;51.434;6.788;2022-11-15T00:14:57;8.67;;;7.77;;
9102;SDS011;4587;51.434;6.788;2022-11-15T00:17:23;8.77;;;7.13;;
9102;SDS011;4587;51.434;6.788;2022-11-15T00:19:48;7.83;;;7.00;;
9102;SDS011;4587;51.434;6.788;2022-11-15T00:22:14;8.97;;;7.33;;
9102;SDS011;4587;51.434;6.788;2022-11-15T00:24:39;11.63;;;7.77;;
9102;SDS011;4587;51.434;6.788;2022-11-15T00:27:05;8.50;;;7.40;;
9102;SDS011;4587;51.434;6.788;2022-11-15T00:29:31;10.47;;;7.57;;
9102;SDS011;4587;51.434;6.788;2022-11-15T00:31:56;8.03;;;7.17;;
9102;SDS011;4587;51.434;6.788;2022-11-15T00:34:22;10.17;;;8.30;;
9102;SDS011;4587;51.434;6.788;2022-11-15T00:36:47;8.03;;;7.20;;
9102;SDS011;4587;51.434;6.788;2022-11-15T00:39:13;8.03;;;7.23;;
9102;SDS011;4587;51.434;6.788;2022-11-15T00:41:38;9.63;;;6.90;;
9102;SDS011;4587;51.434;6.788;2022-11-15T00:44:04;10.17;;;7.63;;
9102;SDS011;4587;51.434;6.788;2022-11-15T00:46:29;10.67;;;7.13;;
9102;SDS011;4587;51.434;6.788;2022-11-15T00:48:55;9.73;;;7.17;;
9102;SDS011;4587;51.434;6.788;2022-11-15T00:51:20;8.77;;;7.40;;
9102;SDS011;4587;51.434;6.788;2022-11-15T00:53:46;7.33;;;6.60;;
9102;SDS011;4587;51.434;6.788;2022-11-15T00:56:11;7.80;;;6.47;;
9102;SDS011;4587;51.434;6.788;2022-11-15T00:58:37;11.47;;;8.47;;
9102;SDS011;4587;51.434;6.788;2022-11-15T01:01:06;9.20;;;7.27;;
9102;SDS011;4587;51.434;6.788;2022-11-15T01:03:37;7.23;;;6.53;;
9102;SDS011;4587;51.434;6.788;2022-11-15T01:06:04;8.30;;;7.00;;
9102;SDS011;4587;51.434;6.788;2022-11-15T01:08:31;8.27;;;7.10;;
9102;SDS011;4587;51.434;6.788;2022-11-15T01:11:00;7.73;;;6.80;;
9102;SDS011;4587;51.434;6.788;2022-11-15T01:13:30;10.37;;;7.27;;
9102;SDS011;4587;51.434;6.788;2022-11-15T01:15:57;7.33;;;6.53;;
9102;SDS011;4587;51.434;6.788;2022-11-15T01:18:22;7.80;;;6.90;;
9102;SDS011;4587;51.434;6.788;2022-11-15T01:20:48;8.67;;;7.00;;
9102;SDS011;4587;51.434;6.788;2022-11-15T01:23:14;10.17;;;6.67;;
9102;SDS011;4587;51.434;6.788;2022-11-15T01:25:39;9.90;;;6.90;;
9102;SDS011;4587;51.434;6.788;2022-11-15T01:28:05;9.20;;;6.73;;
9102;SDS011;4587;51.434;6.788;2022-11-15T01:30:31;20.97;;;14.27;;
9102;SDS011;4587;51.434;6.788;2022-11-15T01:32:56;27.40;;;19.30;;
9102;SDS011;4587;51.434;6.788;2022-11-15T01:35:22;9.27;;;7.50;;
9102;SDS011;4587;51.434;6.788;2022-11-15T01:37:48;8.00;;;6.77;;
9102;SDS011;4587;51.434;6.788;2022-11-15T01:40:13;7.50;;;6.63;;
9102;SDS011;4587;51.434;6.788;2022-11-15T01:42:39;7.80;;;6.80;;
9102;SDS011;4587;51.434;6.788;2022-11-15T01:45:05;10.50;;;7.00;;
9102;SDS011;4587;51.434;6.788;2022-11-15T01:47:31;12.80;;;7.60;;
9102;SDS011;4587;51.434;6.788;2022-11-15T01:50:05;9.77;;;7.20;;
9102;SDS011;4587;51.434;6.788;2022-11-15T01:52:34;8.07;;;6.73;;
9102;SDS011;4587;51.434;6.788;2022-11-15T01:55:05;7.80;;;6.60;;
9102;SDS011;4587;51.434;6.788;2022-11-15T01:57:51;8.30;;;6.70;;
9102;SDS011;4587;51.434;6.788;2022-11-15T02:00:22;8.47;;;6.37;;
9102;SDS011;4587;51.434;6.788;2022-11-15T02:02:48;8.53;;;6.30;;
9102;SDS011;4587;51.434;6.788;2022-11-15T02:05:14;8.30;;;6.37;;
9102;SDS011;4587;51.434;6.788;2022-11-15T02:07:40;7.03;;;5.90;;
9102;SDS011;4587;51.434;6.788;2022-11-15T02:10:12;7.77;;;5.93;;
9102;SDS011;4587;51.434;6.788;2022-11-15T02:12:42;9.97;;;6.60;;
9102;SDS011;4587;51.434;6.788;2022-11-15T02:15:08;7.73;;;6.17;;
9102;SDS011;4587;51.434;6.788;2022-11-15T02:22:55;8.37;;;6.40;;
9102;SDS011;4587;51.434;6.788;2022-11-15T02:25:41;8.47;;;6.00;;
9102;SDS011;4587;51.434;6.788;2022-11-15T02:28:27;7.10;;;5.73;;
9102;SDS011;4587;51.434;6.788;2022-11-15T02:33:59;9.80;;;5.83;;
9102;SDS011;4587;51.434;6.788;2022-11-15T02:36:34;6.63;;;5.90;;
9102;SDS011;4587;51.434;6.788;2022-11-15T02:42:11;12.53;;;8.63;;
9102;SDS011;4587;51.434;6.788;2022-11-15T02:44:56;9.43;;;6.50;;
9102;SDS011;4587;51.434;6.788;2022-11-15T02:47:28;10.27;;;7.50;;
9102;SDS011;4587;51.434;6.788;2022-11-15T02:50:00;7.43;;;6.13;;
9102;SDS011;4587;51.434;6.788;2022-11-15T02:52:31;6.80;;;6.07;;
9102;SDS011;4587;51.434;6.788;2022-11-15T02:54:57;6.60;;;5.90;;
9102;SDS011;4587;51.434;6.788;2022-11-15T02:57:32;7.47;;;5.77;;
9102;SDS011;4587;51.434;6.788;2022-11-15T03:00:17;7.77;;;5.70;;
9102;SDS011;4587;51.434;6.788;2022-11-15T03:11:09;7.30;;;6.17;;
9102;SDS011;4587;51.434;6.788;2022-11-15T03:19:14;8.30;;;6.30;;
9102;SDS011;4587;51.434;6.788;2022-11-15T03:21:45;8.60;;;6.67;;
9102;SDS011;4587;51.434;6.788;2022-11-15T03:24:12;8.87;;;6.40;;
9102;SDS011;4587;51.434;6.788;2022-11-15T03:26:41;24.57;;;20.33;;
9102;SDS011;4587;51.434;6.788;2022-11-15T03:29:12;9.00;;;7.43;;
9102;SDS011;4587;51.434;6.788;2022-11-15T03:31:44;9.43;;;6.60;;
9102;SDS011;4587;51.434;6.788;2022-11-15T03:34:19;7.53;;;6.60;;
9102;SDS011;4587;51.434;6.788;2022-11-15T03:36:54;8.37;;;6.70;;
9102;SDS011;4587;51.434;6.788;2022-11-15T03:39:20;8.57;;;6.93;;
9102;SDS011;4587;51.434;6.788;2022-11-15T03:47:16;8.43;;;6.67;;
9102;SDS011;4587;51.434;6.788;2022-11-15T03:49:52;9.03;;;6.43;;
9102;SDS011;4587;51.434;6.788;2022-11-15T03:52:30;7.73;;;6.30;;
9102;SDS011;4587;51.434;6.788;2022-11-15T03:54:58;6.83;;;5.93;;
9102;SDS011;4587;51.434;6.788;2022-11-15T03:57:26;7.80;;;6.53;;
9102;SDS011;4587;51.434;6.788;2022-11-15T03:59:51;7.87;;;6.03;;
9102;SDS011;4587;51.434;6.788;2022-11-15T04:02:17;7.97;;;6.17;;
9102;SDS011;4587;51.434;6.788;2022-11-15T04:04:43;9.47;;;6.00;;
9102;SDS011;4587;51.434;6.788;2022-11-15T04:07:11;6.70;;;5.53;;
9102;SDS011;4587;51.434;6.788;2022-11-15T04:09:37;7.20;;;6.00;;
9102;SDS011;4587;51.434;6.788;2022-11-15T04:12:23;7.00;;;5.87;;
9102;SDS011;4587;51.434;6.788;2022-11-15T04:14:58;7.87;;;5.90;;
9102;SDS011;4587;51.434;6.788;2022-11-15T04:20:09;6.27;;;5.47;;
9102;SDS011;4587;51.434;6.788;2022-11-15T04:22:55;6.67;;;5.80;;
9102;SDS011;4587;51.434;6.788;2022-11-15T04:25:40;6.47;;;5.40;;
9102;SDS011;4587;51.434;6.788;2022-11-15T04:28:07;7.03;;;6.10;;
9102;SDS011;4587;51.434;6.788;2022-11-15T04:30:33;5.83;;;5.33;;
9102;SDS011;4587;51.434;6.788;2022-11-15T04:32:58;8.50;;;6.03;;
9102;SDS011;4587;51.434;6.788;2022-11-15T04:35:24;6.37;;;5.20;;
9102;SDS011;4587;51.434;6.788;2022-11-15T04:37:49;7.87;;;5.60;;
9102;SDS011;4587;51.434;6.788;2022-11-15T04:40:15;6.30;;;5.43;;
9102;SDS011;4587;51.434;6.788;2022-11-15T04:42:41;6.30;;;5.37;;
9102;SDS011;4587;51.434;6.788;2022-11-15T04:45:10;5.70;;;5.10;;
9102;SDS011;4587;51.434;6.788;2022-11-15T04:47:36;6.90;;;5.50;;
9102;SDS011;4587;51.434;6.788;2022-11-15T04:50:02;5.97;;;4.87;;
9102;SDS011;4587;51.434;6.788;2022-11-15T04:52:28;7.90;;;5.50;;
9102;SDS011;4587;51.434;6.788;2022-11-15T04:54:53;8.73;;;5.20;;
9102;SDS011;4587;51.434;6.788;2022-11-15T04:57:19;5.63;;;4.73;;
9102;SDS011;4587;51.434;6.788;2022-11-15T04:59:44;5.20;;;4.67;;
9102;SDS011;4587;51.434;6.788;2022-11-15T05:02:10;6.17;;;4.73;;
9102;SDS011;4587;51.434;6.788;2022-11-15T05:04:36;6.47;;;4.50;;
9102;SDS011;4587;51.434;6.788;2022-11-15T05:07:01;5.47;;;4.73;;
9102;SDS011;4587;51.434;6.788;2022-11-15T05:09:29;4.93;;;4.30;;
9102;SDS011;4587;51.434;6.788;2022-11-15T05:11:54;4.77;;;4.37;;
9102;SDS011;4587;51.434;6.788;2022-11-15T05:14:20;7.13;;;4.73;;
9102;SDS011;4587;51.434;6.788;2022-11-15T05:16:45;5.83;;;4.93;;
9102;SDS011;4587;51.434;6.788;2022-11-15T05:19:11;5.20;;;4.50;;
9102;SDS011;4587;51.434;6.788;2022-11-15T05:21:36;5.00;;;4.30;;
9102;SDS011;4587;51.434;6.788;2022-11-15T05:24:02;5.00;;;4.20;;
9102;SDS011;4587;51.434;6.788;2022-11-15T05:26:28;5.07;;;4.13;;
9102;SDS011;4587;51.434;6.788;2022-11-15T05:28:58;4.70;;;4.23;;
9102;SDS011;4587;51.434;6.788;2022-11-15T05:31:24;4.60;;;4.20;;
9102;SDS011;4587;51.434;6.788;2022-11-15T05:33:50;5.93;;;4.23;;
9102;SDS011;4587;51.434;6.788;2022-11-15T05:36:37;5.17;;;4.50;;
9102;SDS011;4587;51.434;6.788;2022-11-15T05:39:04;5.37;;;4.47;;
9102;SDS011;4587;51.434;6.788;2022-11-15T05:41:39;4.97;;;4.47;;
9102;SDS011;4587;51.434;6.788;2022-11-15T05:44:10;6.00;;;4.80;;
9102;SDS011;4587;51.434;6.788;2022-11-15T05:46:38;6.23;;;4.80;;
9102;SDS011;4587;51.434;6.788;2022-11-15T05:49:05;5.57;;;5.00;;
9102;SDS011;4587;51.434;6.788;2022-11-15T05:51:35;6.30;;;4.73;;
9102;SDS011;4587;51.434;6.788;2022-11-15T05:54:01;5.17;;;4.77;;
9102;SDS011;4587;51.434;6.788;2022-11-15T05:56:27;5.73;;;4.70;;
9102;SDS011;4587;51.434;6.788;2022-11-15T05:58:55;6.50;;;5.70;;
9102;SDS011;4587;51.434;6.788;2022-11-15T06:01:22;5.93;;;5.07;;
9102;SDS011;4587;51.434;6.788;2022-11-15T06:03:50;5.67;;;5.07;;
9102;SDS011;4587;51.434;6.788;2022-11-15T06:06:15;5.67;;;5.13;;
9102;SDS011;4587;51.434;6.788;2022-11-15T06:08:41;6.10;;;5.53;;
9102;SDS011;4587;51.434;6.788;2022-11-15T06:11:06;6.43;;;5.83;;
9102;SDS011;4587;51.434;6.788;2022-11-15T06:13:32;6.10;;;5.50;;
9102;SDS011;4587;51.434;6.788;2022-11-15T06:15:58;6.23;;;5.50;;
9102;SDS011;4587;51.434;6.788;2022-11-15T06:18:24;6.70;;;5.50;;
9102;SDS011;4587;51.434;6.788;2022-11-15T06:20:50;6.03;;;5.40;;
9102;SDS011;4587;51.434;6.788;2022-11-15T06:23:16;5.77;;;5.17;;
9102;SDS011;4587;51.434;6.788;2022-11-15T06:25:42;7.07;;;5.87;;
9102;SDS011;4587;51.434;6.788;2022-11-15T06:28:07;6.40;;;5.80;;
9102;SDS011;4587;51.434;6.788;2022-11-15T06:30:33;6.23;;;5.63;;
9102;SDS011;4587;51.434;6.788;2022-11-15T06:33:02;7.33;;;6.10;;
9102;SDS011;4587;51.434;6.788;2022-11-15T06:35:29;7.03;;;5.20;;
9102;SDS011;4587;51.434;6.788;2022-11-15T06:38:01;6.20;;;5.60;;
9102;SDS011;4587;51.434;6.788;2022-11-15T06:40:28;5.87;;;5.20;;
9102;SDS011;4587;51.434;6.788;2022-11-15T06:42:58;6.43;;;5.53;;
9102;SDS011;4587;51.434;6.788;2022-11-15T06:45:24;5.87;;;5.37;;
9102;SDS011;4587;51.434;6.788;2022-11-15T06:47:50;5.73;;;4.87;;
9102;SDS011;4587;51.434;6.788;2022-11-15T06:50:15;6.20;;;5.00;;
9102;SDS011;4587;51.434;6.788;2022-11-15T06:52:41;8.30;;;4.97;;
9102;SDS011;4587;51.434;6.788;2022-11-15T06:55:07;6.30;;;4.97;;
9102;SDS011;4587;51.434;6.788;2022-11-15T06:57:33;5.57;;;4.43;;
9102;SDS011;4587;51.434;6.788;2022-11-15T06:59:58;7.10;;;4.83;;
9102;SDS011;4587;51.434;6.788;2022-11-15T07:02:24;5.10;;;4.60;;
9102;SDS011;4587;51.434;6.788;2022-11-15T07:04:50;6.40;;;4.80;;
9102;SDS011;4587;51.434;6.788;2022-11-15T07:07:15;4.83;;;4.43;;
9102;SDS011;4587;51.434;6.788;2022-11-15T07:09:41;5.20;;;4.70;;
9102;SDS011;4587;51.434;6.788;2022-11-15T07:12:07;5.57;;;4.70;;
9102;SDS011;4587;51.434;6.788;2022-11-15T07:14:32;5.43;;;4.93;;
9102;SDS011;4587;51.434;6.788;2022-11-15T07:16:58;6.13;;;4.33;;
9102;SDS011;4587;51.434;6.788;2022-11-15T07:19:23;5.27;;;4.40;;
9102;SDS011;4587;51.434;6.788;2022-11-15T07:21:49;5.03;;;4.33;;
9102;SDS011;4587;51.434;6.788;2022-11-15T07:24:14;5.50;;;4.50;;
9102;SDS011;4587;51.434;6.788;2022-11-15T07:26:40;6.47;;;4.50;;
9102;SDS011;4587;51.434;6.788;2022-11-15T07:29:06;5.90;;;4.20;;
9102;SDS011;4587;51.434;6.788;2022-11-15T07:31:31;4.57;;;4.17;;
9102;SDS011;4587;51.434;6.788;2022-11-15T07:33:57;4.70;;;3.93;;
9102;SDS011;4587;51.434;6.788;2022-11-15T07:36:22;4.10;;;3.70;;
9102;SDS011;4587;51.434;6.788;2022-11-15T07:38:48;3.90;;;3.50;;
9102;SDS011;4587;51.434;6.788;2022-11-15T07:41:13;4.37;;;3.70;;
9102;SDS011;4587;51.434;6.788;2022-11-15T07:43:39;4.60;;;3.30;;
9102;SDS011;4587;51.434;6.788;2022-11-15T07:46:05;3.80;;;3.50;;
9102;SDS011;4587;51.434;6.788;2022-11-15T07:48:34;3.67;;;3.37;;
9102;SDS011;4587;51.434;6.788;2022-11-15T07:51:00;3.87;;;3.30;;
9102;SDS011;4587;51.434;6.788;2022-11-15T07:53:26;3.30;;;3.00;;
9102;SDS011;4587;51.434;6.788;2022-11-15T07:55:51;5.73;;;3.10;;
9102;SDS011;4587;51.434;6.788;2022-11-15T07:58:18;4.30;;;3.00;;
9102;SDS011;4587;51.434;6.788;2022-11-15T08:00:44;4.47;;;3.27;;
9102;SDS011;4587;51.434;6.788;2022-11-15T08:03:10;2.80;;;2.50;;
9102;SDS011;4587;51.434;6.788;2022-11-15T08:05:37;3.00;;;2.13;;
9102;SDS011;4587;51.434;6.788;2022-11-15T08:08:05;1.60;;;1.40;;
9102;SDS011;4587;51.434;6.788;2022-11-15T08:10:31;2.70;;;1.50;;
9102;SDS011;4587;51.434;6.788;2022-11-15T08:13:01;2.90;;;1.90;;
9102;SDS011;4587;51.434;6.788;2022-11-15T08:15:28;3.20;;;1.87;;
9102;SDS011;4587;51.434;6.788;2022-11-15T08:17:58;2.47;;;1.70;;
9102;SDS011;4587;51.434;6.788;2022-11-15T08:20:25;2.57;;;1.83;;
9102;SDS011;4587;51.434;6.788;2022-11-15T08:22:54;2.50;;;1.40;;
9102;SDS011;4587;51.434;6.788;2022-11-15T08:25:21;2.77;;;1.13;;
9102;SDS011;4587;51.434;6.788;2022-11-15T08:27:47;2.87;;;1.20;;
9102;SDS011;4587;51.434;6.788;2022-11-15T08:30:15;4.20;;;1.13;;
9102;SDS011;4587;51.434;6.788;2022-11-15T08:32:41;4.17;;;0.97;;
9102;SDS011;4587;51.434;6.788;2022-11-15T08:35:07;2.70;;;0.90;;
9102;SDS011;4587;51.434;6.788;2022-11-15T08:37:33;1.13;;;0.80;;
9102;SDS011;4587;51.434;6.788;2022-11-15T08:39:59;3.27;;;1.00;;
9102;SDS011;4587;51.434;6.788;2022-11-15T08:42:24;2.37;;;1.13;;
9102;SDS011;4587;51.434;6.788;2022-11-15T08:44:50;2.00;;;0.90;;
9102;SDS011;4587;51.434;6.788;2022-11-15T08:47:15;3.60;;;1.00;;
9102;SDS011;4587;51.434;6.788;2022-11-15T08:49:41;5.10;;;1.20;;
9102;SDS011;4587;51.434;6.788;2022-11-15T08:52:06;2.33;;;1.20;;
9102;SDS011;4587;51.434;6.788;2022-11-15T08:54:32;1.93;;;1.03;;
9102;SDS011;4587;51.434;6.788;2022-11-15T08:56:57;2.30;;;1.00;;
9102;SDS011;4587;51.434;6.788;2022-11-15T08:59:23;1.83;;;0.90;;
9102;SDS011;4587;51.434;6.788;2022-11-15T09:01:49;3.10;;;1.20;;
9102;SDS011;4587;51.434;6.788;2022-11-15T09:04:14;2.20;;;1.00;;
9102;SDS011;4587;51.434;6.788;2022-11-15T09:06:40;3.40;;;1.20;;
9102;SDS011;4587;51.434;6.788;2022-11-15T09:09:05;1.60;;;1.10;;
9102;SDS011;4587;51.434;6.788;2022-11-15T09:11:31;1.57;;;1.20;;
9102;SDS011;4587;51.434;6.788;2022-11-15T09:13:57;2.03;;;1.40;;
9102;SDS011;4587;51.434;6.788;2022-11-15T09:16:22;2.67;;;1.57;;
9102;SDS011;4587;51.434;6.788;2022-11-15T09:18:48;2.00;;;1.43;;
9102;SDS011;4587;51.434;6.788;2022-11-15T09:21:13;3.00;;;1.60;;
9102;SDS011;4587;51.434;6.788;2022-11-15T09:23:39;1.97;;;1.43;;
9102;SDS011;4587;51.434;6.788;2022-11-15T09:26:05;1.60;;;1.50;;
9102;SDS011;4587;51.434;6.788;2022-11-15T09:28:30;4.07;;;1.80;;
9102;SDS011;4587;51.434;6.788;2022-11-15T09:30:57;3.87;;;2.17;;
9102;SDS011;4587;51.434;6.788;2022-11-15T09:33:28;5.40;;;2.30;;
9102;SDS011;4587;51.434;6.788;2022-11-15T09:35:54;3.10;;;2.47;;
9102;SDS011;4587;51.434;6.788;2022-11-15T09:38:24;3.47;;;2.40;;
9102;SDS011;4587;51.434;6.788;2022-11-15T09:40:51;3.23;;;2.67;;
9102;SDS011;4587;51.434;6.788;2022-11-15T09:48:55;4.17;;;2.40;;
9102;SDS011;4587;51.434;6.788;2022-11-15T09:51:34;3.03;;;2.20;;
9102;SDS011;4587;51.434;6.788;2022-11-15T09:54:21;3.90;;;2.23;;
9102;SDS011;4587;51.434;6.788;2022-11-15T09:56:55;3.17;;;1.90;;
9102;SDS011;4587;51.434;6.788;2022-11-15T09:59:56;4.77;;;2.43;;
9102;SDS011;4587;51.434;6.788;2022-11-15T10:02:53;3.83;;;1.70;;
9102;SDS011;4587;51.434;6.788;2022-11-15T10:05:43;2.33;;;1.87;;
9102;SDS011;4587;51.434;6.788;2022-11-15T10:11:07;2.57;;;1.40;;
9102;SDS011;4587;51.434;6.788;2022-11-15T10:13:36;2.90;;;1.40;;
9102;SDS011;4587;51.434;6.788;2022-11-15T10:18:58;1.50;;;1.10;;
9102;SDS011;4587;51.434;6.788;2022-11-15T10:24:39;6.60;;;1.33;;
9102;SDS011;4587;51.434;6.788;2022-11-15T10:27:17;2.37;;;1.40;;
9102;SDS011;4587;51.434;6.788;2022-11-15T10:29:47;3.10;;;1.20;;
9102;SDS011;4587;51.434;6.788;2022-11-15T10:32:15;2.47;;;1.20;;
9102;SDS011;4587;51.434;6.788;2022-11-15T10:34:46;2.87;;;1.33;;
9102;SDS011;4587;51.434;6.788;2022-11-15T10:37:16;2.27;;;1.30;;
9102;SDS011;4587;51.434;6.788;2022-11-15T10:40:12;1.80;;;1.00;;
9102;SDS011;4587;51.434;6.788;2022-11-15T10:42:47;2.77;;;1.20;;
9102;SDS011;4587;51.434;6.788;2022-11-15T10:45:28;2.43;;;0.90;;
9102;SDS011;4587;51.434;6.788;2022-11-15T10:50:36;2.57;;;1.17;;
9102;SDS011;4587;51.434;6.788;2022-11-15T10:53:03;5.63;;;1.10;;
9102;SDS011;4587;51.434;6.788;2022-11-15T10:55:30;2.60;;;1.13;;
9102;SDS011;4587;51.434;6.788;2022-11-15T10:58:04;1.77;;;0.93;;
9102;SDS011;4587;51.434;6.788;2022-11-15T11:00:52;3.10;;;1.20;;
9102;SDS011;4587;51.434;6.788;2022-11-15T11:03:28;3.00;;;1.10;;
9102;SDS011;4587;51.434;6.788;2022-11-15T11:06:15;2.67;;;1.20;;
9102;SDS011;4587;51.434;6.788;2022-11-15T11:08:55;3.40;;;1.43;;
9102;SDS011;4587;51.434;6.788;2022-11-15T11:11:23;2.30;;;1.20;;
9102;SDS011;4587;51.434;6.788;2022-11-15T11:13:50;2.23;;;1.10;;
9102;SDS011;4587;51.434;6.788;2022-11-15T11:16:25;2.93;;;1.20;;
9102;SDS011;4587;51.434;6.788;2022-11-15T11:24:50;1.60;;;1.00;;
9102;SDS011;4587;51.434;6.788;2022-11-15T11:30:20;4.20;;;1.10;;
9102;SDS011;4587;51.434;6.788;2022-11-15T11:35:46;2.80;;;1.20;;
9102;SDS011;4587;51.434;6.788;2022-11-15T11:41:08;2.77;;;1.20;;
9102;SDS011;4587;51.434;6.788;2022-11-15T11:43:44;2.37;;;1.10;;
9102;SDS011;4587;51.434;6.788;2022-11-15T11:51:45;2.77;;;1.10;;
9102;SDS011;4587;51.434;6.788;2022-11-15T11:54:39;2.20;;;1.10;;
9102;SDS011;4587;51.434;6.788;2022-11-15T12:00:04;1.80;;;1.00;;
9102;SDS011;4587;51.434;6.788;2022-11-15T12:02:50;3.67;;;0.90;;
9102;SDS011;4587;51.434;6.788;2022-11-15T12:08:19;2.33;;;1.00;;
9102;SDS011;4587;51.434;6.788;2022-11-15T12:10:54;1.63;;;1.03;;
9102;SDS011;4587;51.434;6.788;2022-11-15T12:13:28;3.47;;;0.70;;
9102;SDS011;4587;51.434;6.788;2022-11-15T12:16:01;2.27;;;1.00;;
9102;SDS011;4587;51.434;6.788;2022-11-15T12:18:52;2.20;;;0.97;;
9102;SDS011;4587;51.434;6.788;2022-11-15T12:21:25;3.80;;;1.00;;
9102;SDS011;4587;51.434;6.788;2022-11-15T12:24:17;3.17;;;0.97;;
9102;SDS011;4587;51.434;6.788;2022-11-15T12:26:51;4.03;;;0.80;;
9102;SDS011;4587;51.434;6.788;2022-11-15T12:29:33;3.57;;;0.80;;
9102;SDS011;4587;51.434;6.788;2022-11-15T12:32:03;2.53;;;0.80;;
9102;SDS011;4587;51.434;6.788;2022-11-15T12:34:34;2.27;;;0.90;;
9102;SDS011;4587;51.434;6.788;2022-11-15T12:40:14;1.63;;;0.80;;
9102;SDS011;4587;51.434;6.788;2022-11-15T12:43:45;2.13;;;0.87;;
9102;SDS011;4587;51.434;6.788;2022-11-15T12:45:40;2.10;;;0.90;;
9102;SDS011;4587;51.434;6.788;2022-11-15T12:58:51;6.57;;;4.03;;
9102;SDS011;4587;51.434;6.788;2022-11-15T13:12:11;2.23;;;0.90;;
9102;SDS011;4587;51.434;6.788;2022-11-15T13:17:35;3.30;;;0.80;;
9102;SDS011;4587;51.434;6.788;2022-11-15T13:20:25;1.70;;;0.80;;
9102;SDS011;4587;51.434;6.788;2022-11-15T13:23:09;3.00;;;1.07;;
9102;SDS011;4587;51.434;6.788;2022-11-15T13:28:47;1.97;;;0.90;;
9102;SDS011;4587;51.434;6.788;2022-11-15T13:31:21;2.60;;;1.00;;
9102;SDS011;4587;51.434;6.788;2022-11-15T13:34:00;3.80;;;1.00;;
9102;SDS011;4587;51.434;6.788;2022-11-15T13:36:39;2.40;;;0.87;;
9102;SDS011;4587;51.434;6.788;2022-11-15T13:39:06;3.23;;;0.90;;
9102;SDS011;4587;51.434;6.788;2022-11-15T13:41:57;2.83;;;1.30;;
9102;SDS011;4587;51.434;6.788;2022-11-15T13:44:25;2.80;;;1.37;;
9102;SDS011;4587;51.434;6.788;2022-11-15T13:49:31;2.33;;;0.87;;
9102;SDS011;4587;51.434;6.788;2022-11-15T13:51:58;2.43;;;1.00;;
9102;SDS011;4587;51.434;6.788;2022-11-15T13:54:31;2.70;;;0.80;;
9102;SDS011;4587;51.434;6.788;2022-11-15T13:57:04;3.57;;;1.03;;
9102;SDS011;4587;51.434;6.788;2022-11-15T13:59:37;2.60;;;1.00;;
9102;SDS011;4587;51.434;6.788;2022-11-15T14:02:15;4.13;;;0.90;;
9102;SDS011;4587;51.434;6.788;2022-11-15T14:04:51;4.60;;;0.80;;
9102;SDS011;4587;51.434;6.788;2022-11-15T14:07:20;2.03;;;0.77;;
9102;SDS011;4587;51.434;6.788;2022-11-15T14:09:48;2.30;;;0.87;;
9102;SDS011;4587;51.434;6.788;2022-11-15T14:12:22;2.43;;;0.80;;
9102;SDS011;4587;51.434;6.788;2022-11-15T14:14:54;1.97;;;1.03;;
9102;SDS011;4587;51.434;6.788;2022-11-15T14:19:55;2.33;;;0.90;;
9102;SDS011;4587;51.434;6.788;2022-11-15T14:22:22;3.03;;;0.87;;
9102;SDS011;4587;51.434;6.788;2022-11-15T14:27:35;2.20;;;1.03;;
9102;SDS011;4587;51.434;6.788;2022-11-15T14:30:01;3.03;;;1.10;;
9102;SDS011;4587;51.434;6.788;2022-11-15T14:32:27;3.30;;;1.00;;
9102;SDS011;4587;51.434;6.788;2022-11-15T14:34:56;3.53;;;0.80;;
9102;SDS011;4587;51.434;6.788;2022-11-15T14:37:27;2.47;;;1.00;;
9102;SDS011;4587;51.434;6.788;2022-11-15T14:39:56;2.47;;;0.90;;
9102;SDS011;4587;51.434;6.788;2022-11-15T14:42:22;2.43;;;1.13;;
9102;SDS011;4587;51.434;6.788;2022-11-15T14:44:48;4.37;;;1.00;;
9102;SDS011;4587;51.434;6.788;2022-11-15T14:47:13;3.23;;;0.90;;
9102;SDS011;4587;51.434;6.788;2022-11-15T14:49:39;3.23;;;1.30;;
9102;SDS011;4587;51.434;6.788;2022-11-15T14:54:46;3.87;;;1.57;;
9102;SDS011;4587;51.434;6.788;2022-11-15T14:57:11;2.07;;;1.40;;
9102;SDS011;4587;51.434;6.788;2022-11-15T14:59:37;4.27;;;1.20;;
9102;SDS011;4587;51.434;6.788;2022-11-15T15:02:04;4.00;;;1.30;;
9102;SDS011;4587;51.434;6.788;2022-11-15T15:04:38;3.80;;;1.40;;
9102;SDS011;4587;51.434;6.788;2022-11-15T15:07:04;3.20;;;1.10;;
9102;SDS011;4587;51.434;6.788;2022-11-15T15:09:29;3.33;;;1.33;;
9102;SDS011;4587;51.434;6.788;2022-11-15T15:11:55;1.77;;;1.20;;
9102;SDS011;4587;51.434;6.788;2022-11-15T15:14:20;2.80;;;1.40;;
9102;SDS011;4587;51.434;6.788;2022-11-15T15:16:46;4.43;;;1.80;;
9102;SDS011;4587;51.434;6.788;2022-11-15T15:19:11;2.77;;;1.50;;
9102;SDS011;4587;51.434;6.788;2022-11-15T15:21:37;2.33;;;1.40;;
9102;SDS011;4587;51.434;6.788;2022-11-15T15:24:03;2.13;;;1.33;;
9102;SDS011;4587;51.434;6.788;2022-11-15T15:26:29;3.63;;;1.43;;
9102;SDS011;4587;51.434;6.788;2022-11-15T15:28:54;2.23;;;1.40;;
9102;SDS011;4587;51.434;6.788;2022-11-15T15:31:20;4.07;;;1.63;;
9102;SDS011;4587;51.434;6.788;2022-11-15T15:33:45;2.63;;;1.40;;
9102;SDS011;4587;51.434;6.788;2022-11-15T15:36:11;2.03;;;1.70;;
9102;SDS011;4587;51.434;6.788;2022-11-15T15:38:38;2.87;;;1.40;;
9102;SDS011;4587;51.434;6.788;2022-11-15T15:41:10;2.57;;;1.70;;
9102;SDS011;4587;51.434;6.788;2022-11-15T15:43:37;4.00;;;1.50;;
9102;SDS011;4587;51.434;6.788;2022-11-15T15:46:02;4.63;;;1.73;;
9102;SDS011;4587;51.434;6.788;2022-11-15T15:48:28;2.33;;;1.70;;
9102;SDS011;4587;51.434;6.788;2022-11-15T15:50:54;4.43;;;1.80;;
9102;SDS011;4587;51.434;6.788;2022-11-15T15:53:19;2.70;;;1.53;;
9102;SDS011;4587;51.434;6.788;2022-11-15T15:55:45;2.83;;;1.80;;
9102;SDS011;4587;51.434;6.788;2022-11-15T15:58:10;3.00;;;1.93;;
9102;SDS011;4587;51.434;6.788;2022-11-15T16:00:36;4.97;;;1.80;;
9102;SDS011;4587;51.434;6.788;2022-11-15T16:03:02;1.90;;;1.60;;
9102;SDS011;4587;51.434;6.788;2022-11-15T16:05:28;3.40;;;2.00;;
9102;SDS011;4587;51.434;6.788;2022-11-15T16:07:53;3.27;;;1.80;;
9102;SDS011;4587;51.434;6.788;2022-11-15T16:10:23;2.57;;;1.50;;
9102;SDS011;4587;51.434;6.788;2022-11-15T16:12:54;4.27;;;1.77;;
9102;SDS011;4587;51.434;6.788;2022-11-15T16:15:21;3.50;;;1.80;;
9102;SDS011;4587;51.434;6.788;2022-11-15T16:17:49;4.60;;;1.77;;
9102;SDS011;4587;51.434;6.788;2022-11-15T16:20:33;4.17;;;1.97;;
9102;SDS011;4587;51.434;6.788;2022-11-15T16:23:11;4.33;;;1.50;;
9102;SDS011;4587;51.434;6.788;2022-11-15T16:31:09;2.67;;;1.60;;
9102;SDS011;4587;51.434;6.788;2022-11-15T16:33:36;2.23;;;1.50;;
9102;SDS011;4587;51.434;6.788;2022-11-15T16:36:03;3.10;;;1.83;;
9102;SDS011;4587;51.434;6.788;2022-11-15T16:38:29;3.83;;;1.77;;
9102;SDS011;4587;51.434;6.788;2022-11-15T16:40:55;2.67;;;1.90;;
9102;SDS011;4587;51.434;6.788;2022-11-15T16:43:20;3.27;;;1.80;;
9102;SDS011;4587;51.434;6.788;2022-11-15T16:45:46;3.00;;;1.63;;
9102;SDS011;4587;51.434;6.788;2022-11-15T16:50:55;3.03;;;1.90;;
9102;SDS011;4587;51.434;6.788;2022-11-15T16:53:21;2.60;;;1.90;;
9102;SDS011;4587;51.434;6.788;2022-11-15T16:55:47;3.47;;;2.20;;
9102;SDS011;4587;51.434;6.788;2022-11-15T16:58:13;4.47;;;2.20;;
9102;SDS011;4587;51.434;6.788;2022-11-15T17:00:39;4.37;;;2.30;;
9102;SDS011;4587;51.434;6.788;2022-11-15T17:03:04;4.97;;;2.20;;
9102;SDS011;4587;51.434;6.788;2022-11-15T17:05:31;3.47;;;2.00;;
9102;SDS011;4587;51.434;6.788;2022-11-15T17:07:56;3.70;;;2.27;;
9102;SDS011;4587;51.434;6.788;2022-11-15T17:10:22;4.00;;;2.10;;
9102;SDS011;4587;51.434;6.788;2022-11-15T17:12:49;4.77;;;1.80;;
9102;SDS011;4587;51.434;6.788;2022-11-15T17:15:15;4.53;;;2.20;;
9102;SDS011;4587;51.434;6.788;2022-11-15T17:17:42;2.30;;;1.80;;
9102;SDS011;4587;51.434;6.788;2022-11-15T17:20:14;3.20;;;1.63;;
9102;SDS011;4587;51.434;6.788;2022-11-15T17:22:41;4.20;;;1.83;;
9102;SDS011;4587;51.434;6.788;2022-11-15T17:25:07;4.83;;;1.70;;
9102;SDS011;4587;51.434;6.788;2022-11-15T17:27:33;2.93;;;1.50;;
9102;SDS011;4587;51.434;6.788;2022-11-15T17:29:58;2.27;;;1.70;;
9102;SDS011;4587;51.434;6.788;2022-11-15T17:32:24;2.33;;;1.50;;